EDMA

Augsburg Airport

Augsburg, Germany
METAR EDMA 201320Z VRB02KT 9999 SCT042 15/08 Q1028
Observed Flight Rules
Oct-20 @ 13:20 UTC (27 minutes ago) Visual Flight Rules
Wind Visibility Clouds
Variable at 2 knots 10,000+ meters
  • Scattered at 4,200' AGL
Temperatures Readings
Current 15°C / 59°F
Dewpoint 8°C / 46°F
Humidity 63%
Altimeter 30.35" Hg
Pressure 1028 hPa
Elevation 463
METAR EDMA 201320Z VRB02KT 9999 SCT042 15/08 Q1028
Observed Flight Rules
Oct-20 @ 13:20 UTC
(27 minutes ago)
VFR
Wind Visibility
Variable at 2 knots 10,000+ meters
Clouds
  • Scattered at 4,200' AGL
Temperature Dewpoint
15°C / 59°F 8°C / 46°F
Humidity Altimeter Pressure
63% 30.35" Hg 1028 hPa